sensor_id;sensor_type;location;lat;lon;timestamp;temperature;humidity
18581;DHT22;9420;50.876;7.012;2022-12-07T00:01:46;6.10;99.90
18581;DHT22;9420;50.876;7.012;2022-12-07T00:04:15;6.10;99.90
18581;DHT22;9420;50.876;7.012;2022-12-07T00:06:46;6.00;99.90
18581;DHT22;9420;50.876;7.012;2022-12-07T00:09:17;6.10;99.90
18581;DHT22;9420;50.876;7.012;2022-12-07T00:11:48;6.10;99.90
18581;DHT22;9420;50.876;7.012;2022-12-07T00:14:17;6.10;99.90
18581;DHT22;9420;50.876;7.012;2022-12-07T00:16:45;6.10;99.90
18581;DHT22;9420;50.876;7.012;2022-12-07T00:19:15;6.10;99.90
18581;DHT22;9420;50.876;7.012;2022-12-07T00:21:43;6.10;99.90
18581;DHT22;9420;50.876;7.012;2022-12-07T00:24:11;6.10;99.90
18581;DHT22;9420;50.876;7.012;2022-12-07T00:26:40;6.20;99.90
18581;DHT22;9420;50.876;7.012;2022-12-07T00:29:12;6.20;99.90
18581;DHT22;9420;50.876;7.012;2022-12-07T00:31:42;6.20;99.90
18581;DHT22;9420;50.876;7.012;2022-12-07T00:34:13;6.20;99.90
18581;DHT22;9420;50.876;7.012;2022-12-07T00:36:43;6.20;99.90
18581;DHT22;9420;50.876;7.012;2022-12-07T00:39:11;6.20;99.90
18581;DHT22;9420;50.876;7.012;2022-12-07T00:41:38;6.20;99.90
18581;DHT22;9420;50.876;7.012;2022-12-07T00:44:05;6.20;99.90
18581;DHT22;9420;50.876;7.012;2022-12-07T00:46:32;6.10;99.90
18581;DHT22;9420;50.876;7.012;2022-12-07T00:48:59;6.10;99.90
18581;DHT22;9420;50.876;7.012;2022-12-07T00:51:26;6.20;99.90
18581;DHT22;9420;50.876;7.012;2022-12-07T00:53:55;6.20;99.90
18581;DHT22;9420;50.876;7.012;2022-12-07T00:56:24;6.10;99.90
18581;DHT22;9420;50.876;7.012;2022-12-07T00:58:54;6.20;99.90
18581;DHT22;9420;50.876;7.012;2022-12-07T01:01:23;6.20;99.90
18581;DHT22;9420;50.876;7.012;2022-12-07T01:03:51;6.20;99.90
18581;DHT22;9420;50.876;7.012;2022-12-07T01:06:19;6.20;99.90
18581;DHT22;9420;50.876;7.012;2022-12-07T01:08:48;6.20;99.90
18581;DHT22;9420;50.876;7.012;2022-12-07T01:11:18;6.20;99.90
18581;DHT22;9420;50.876;7.012;2022-12-07T01:13:49;6.20;99.90
18581;DHT22;9420;50.876;7.012;2022-12-07T01:16:17;6.20;99.90
18581;DHT22;9420;50.876;7.012;2022-12-07T01:18:46;6.20;99.90
18581;DHT22;9420;50.876;7.012;2022-12-07T01:21:16;6.30;99.90
18581;DHT22;9420;50.876;7.012;2022-12-07T01:23:46;6.30;99.90
18581;DHT22;9420;50.876;7.012;2022-12-07T01:26:16;6.30;99.90
18581;DHT22;9420;50.876;7.012;2022-12-07T01:28:46;6.30;99.90
18581;DHT22;9420;50.876;7.012;2022-12-07T01:31:15;6.30;99.90
18581;DHT22;9420;50.876;7.012;2022-12-07T01:33:44;6.30;99.90
18581;DHT22;9420;50.876;7.012;2022-12-07T01:36:15;6.30;99.90
18581;DHT22;9420;50.876;7.012;2022-12-07T01:38:46;6.30;99.90
18581;DHT22;9420;50.876;7.012;2022-12-07T01:41:19;6.30;99.90
18581;DHT22;9420;50.876;7.012;2022-12-07T01:44:21;6.30;99.90
18581;DHT22;9420;50.876;7.012;2022-12-07T01:46:51;6.40;99.90
18581;DHT22;9420;50.876;7.012;2022-12-07T01:49:25;6.30;99.90
18581;DHT22;9420;50.876;7.012;2022-12-07T01:52:01;6.30;99.90
18581;DHT22;9420;50.876;7.012;2022-12-07T01:54:35;6.30;99.90
18581;DHT22;9420;50.876;7.012;2022-12-07T01:57:05;6.40;99.90
18581;DHT22;9420;50.876;7.012;2022-12-07T01:59:35;6.30;99.90
18581;DHT22;9420;50.876;7.012;2022-12-07T02:02:05;6.30;99.90
18581;DHT22;9420;50.876;7.012;2022-12-07T02:04:37;6.30;99.90
18581;DHT22;9420;50.876;7.012;2022-12-07T02:07:05;6.30;99.90
18581;DHT22;9420;50.876;7.012;2022-12-07T02:09:33;6.30;99.90
18581;DHT22;9420;50.876;7.012;2022-12-07T02:12:01;6.30;99.90
18581;DHT22;9420;50.876;7.012;2022-12-07T02:14:30;6.30;99.90
18581;DHT22;9420;50.876;7.012;2022-12-07T02:17:07;6.30;99.90
18581;DHT22;9420;50.876;7.012;2022-12-07T02:20:00;6.30;99.90
18581;DHT22;9420;50.876;7.012;2022-12-07T02:22:54;6.30;99.90
18581;DHT22;9420;50.876;7.012;2022-12-07T02:25:58;6.30;99.90
18581;DHT22;9420;50.876;7.012;2022-12-07T02:29:01;6.20;99.90
18581;DHT22;9420;50.876;7.012;2022-12-07T02:31:43;6.20;99.90
18581;DHT22;9420;50.876;7.012;2022-12-07T02:34:21;6.20;99.90
18581;DHT22;9420;50.876;7.012;2022-12-07T02:37:00;6.20;99.90
18581;DHT22;9420;50.876;7.012;2022-12-07T02:39:34;6.20;99.90
18581;DHT22;9420;50.876;7.012;2022-12-07T02:42:10;6.20;99.90
18581;DHT22;9420;50.876;7.012;2022-12-07T02:44:45;6.20;99.90
18581;DHT22;9420;50.876;7.012;2022-12-07T02:47:15;6.20;99.90
18581;DHT22;9420;50.876;7.012;2022-12-07T02:49:46;6.20;99.90
18581;DHT22;9420;50.876;7.012;2022-12-07T02:52:13;6.20;99.90
18581;DHT22;9420;50.876;7.012;2022-12-07T02:54:40;6.20;99.90
18581;DHT22;9420;50.876;7.012;2022-12-07T02:57:26;6.20;99.90
18581;DHT22;9420;50.876;7.012;2022-12-07T03:00:10;6.20;99.90
18581;DHT22;9420;50.876;7.012;2022-12-07T03:02:50;6.20;99.90
18581;DHT22;9420;50.876;7.012;2022-12-07T03:08:38;6.20;99.90
18581;DHT22;9420;50.876;7.012;2022-12-07T03:11:14;6.20;99.90
18581;DHT22;9420;50.876;7.012;2022-12-07T03:13:49;6.20;99.90
18581;DHT22;9420;50.876;7.012;2022-12-07T03:16:26;6.20;99.90
18581;DHT22;9420;50.876;7.012;2022-12-07T03:18:58;6.20;99.90
18581;DHT22;9420;50.876;7.012;2022-12-07T03:21:32;6.30;99.90
18581;DHT22;9420;50.876;7.012;2022-12-07T03:24:07;6.20;99.90
18581;DHT22;9420;50.876;7.012;2022-12-07T03:26:42;6.20;99.90
18581;DHT22;9420;50.876;7.012;2022-12-07T03:29:17;6.20;99.90
18581;DHT22;9420;50.876;7.012;2022-12-07T03:31:54;6.20;99.90
18581;DHT22;9420;50.876;7.012;2022-12-07T03:34:29;6.20;99.90
18581;DHT22;9420;50.876;7.012;2022-12-07T03:37:03;6.20;99.90
18581;DHT22;9420;50.876;7.012;2022-12-07T03:39:37;6.30;99.90
18581;DHT22;9420;50.876;7.012;2022-12-07T03:42:08;6.20;99.90
18581;DHT22;9420;50.876;7.012;2022-12-07T03:44:38;6.20;99.90
18581;DHT22;9420;50.876;7.012;2022-12-07T03:47:13;6.20;99.90
18581;DHT22;9420;50.876;7.012;2022-12-07T03:49:50;6.30;99.90
18581;DHT22;9420;50.876;7.012;2022-12-07T03:52:24;6.20;99.90
18581;DHT22;9420;50.876;7.012;2022-12-07T03:55:01;6.20;99.90
18581;DHT22;9420;50.876;7.012;2022-12-07T03:57:34;6.20;99.90
18581;DHT22;9420;50.876;7.012;2022-12-07T04:00:05;6.20;99.90
18581;DHT22;9420;50.876;7.012;2022-12-07T04:02:35;6.20;99.90
18581;DHT22;9420;50.876;7.012;2022-12-07T04:05:03;6.20;99.90
18581;DHT22;9420;50.876;7.012;2022-12-07T04:07:31;6.20;99.90
18581;DHT22;9420;50.876;7.012;2022-12-07T04:09:58;6.20;99.90
18581;DHT22;9420;50.876;7.012;2022-12-07T04:12:25;6.20;99.90
18581;DHT22;9420;50.876;7.012;2022-12-07T04:14:52;6.20;99.90
18581;DHT22;9420;50.876;7.012;2022-12-07T04:17:19;6.20;99.90
18581;DHT22;9420;50.876;7.012;2022-12-07T04:19:47;6.20;99.90
18581;DHT22;9420;50.876;7.012;2022-12-07T04:22:15;6.20;99.90
18581;DHT22;9420;50.876;7.012;2022-12-07T04:24:42;6.20;99.90
18581;DHT22;9420;50.876;7.012;2022-12-07T04:27:09;6.20;99.90
18581;DHT22;9420;50.876;7.012;2022-12-07T04:29:36;6.20;99.90
18581;DHT22;9420;50.876;7.012;2022-12-07T04:32:03;6.20;99.90
18581;DHT22;9420;50.876;7.012;2022-12-07T04:34:30;6.20;99.90
18581;DHT22;9420;50.876;7.012;2022-12-07T04:36:58;6.20;99.90
18581;DHT22;9420;50.876;7.012;2022-12-07T04:39:27;6.10;99.90
18581;DHT22;9420;50.876;7.012;2022-12-07T04:41:56;6.10;99.90
18581;DHT22;9420;50.876;7.012;2022-12-07T04:44:24;6.10;99.90
18581;DHT22;9420;50.876;7.012;2022-12-07T04:46:53;6.00;99.90
18581;DHT22;9420;50.876;7.012;2022-12-07T04:49:21;6.00;99.90
18581;DHT22;9420;50.876;7.012;2022-12-07T04:51:49;6.00;99.90
18581;DHT22;9420;50.876;7.012;2022-12-07T04:54:18;6.00;99.90
18581;DHT22;9420;50.876;7.012;2022-12-07T04:56:45;5.90;99.90
18581;DHT22;9420;50.876;7.012;2022-12-07T04:59:14;5.90;99.90
18581;DHT22;9420;50.876;7.012;2022-12-07T05:01:42;5.80;99.90
18581;DHT22;9420;50.876;7.012;2022-12-07T05:04:10;5.80;99.90
18581;DHT22;9420;50.876;7.012;2022-12-07T05:06:37;5.80;99.90
18581;DHT22;9420;50.876;7.012;2022-12-07T05:09:05;5.80;99.90
18581;DHT22;9420;50.876;7.012;2022-12-07T05:11:33;5.80;99.90
18581;DHT22;9420;50.876;7.012;2022-12-07T05:14:09;5.80;99.90
18581;DHT22;9420;50.876;7.012;2022-12-07T05:16:39;5.80;99.90
18581;DHT22;9420;50.876;7.012;2022-12-07T05:19:08;5.90;99.90
18581;DHT22;9420;50.876;7.012;2022-12-07T05:21:37;5.90;99.90
18581;DHT22;9420;50.876;7.012;2022-12-07T05:24:06;5.80;99.90
18581;DHT22;9420;50.876;7.012;2022-12-07T05:26:35;5.90;99.90
18581;DHT22;9420;50.876;7.012;2022-12-07T05:29:02;5.80;99.90
18581;DHT22;9420;50.876;7.012;2022-12-07T05:31:30;5.80;99.90
18581;DHT22;9420;50.876;7.012;2022-12-07T05:33:57;5.80;99.90
18581;DHT22;9420;50.876;7.012;2022-12-07T05:36:24;5.80;99.90
18581;DHT22;9420;50.876;7.012;2022-12-07T05:38:54;5.80;99.90
18581;DHT22;9420;50.876;7.012;2022-12-07T05:41:21;5.80;99.90
18581;DHT22;9420;50.876;7.012;2022-12-07T05:44:06;5.70;99.90
18581;DHT22;9420;50.876;7.012;2022-12-07T05:46:33;5.80;99.90
18581;DHT22;9420;50.876;7.012;2022-12-07T05:49:01;5.70;99.90
18581;DHT22;9420;50.876;7.012;2022-12-07T05:51:29;5.80;99.90
18581;DHT22;9420;50.876;7.012;2022-12-07T05:53:56;5.70;99.90
18581;DHT22;9420;50.876;7.012;2022-12-07T05:56:23;5.80;99.90
18581;DHT22;9420;50.876;7.012;2022-12-07T05:58:50;5.80;99.90
18581;DHT22;9420;50.876;7.012;2022-12-07T06:01:35;5.80;99.90
18581;DHT22;9420;50.876;7.012;2022-12-07T06:04:02;5.80;99.90
18581;DHT22;9420;50.876;7.012;2022-12-07T06:06:30;5.80;99.90
18581;DHT22;9420;50.876;7.012;2022-12-07T06:08:57;5.80;99.90
18581;DHT22;9420;50.876;7.012;2022-12-07T06:11:24;5.80;99.90
18581;DHT22;9420;50.876;7.012;2022-12-07T06:14:08;5.80;99.90
18581;DHT22;9420;50.876;7.012;2022-12-07T06:16:37;5.80;99.90
18581;DHT22;9420;50.876;7.012;2022-12-07T06:19:04;5.70;99.90
18581;DHT22;9420;50.876;7.012;2022-12-07T06:21:31;5.70;99.90
18581;DHT22;9420;50.876;7.012;2022-12-07T06:23:58;5.70;99.90
18581;DHT22;9420;50.876;7.012;2022-12-07T06:26:25;5.60;99.90
18581;DHT22;9420;50.876;7.012;2022-12-07T06:28:52;5.60;99.90
18581;DHT22;9420;50.876;7.012;2022-12-07T06:31:19;5.50;99.90
18581;DHT22;9420;50.876;7.012;2022-12-07T06:33:48;5.50;99.90
18581;DHT22;9420;50.876;7.012;2022-12-07T06:36:15;5.40;99.90
18581;DHT22;9420;50.876;7.012;2022-12-07T06:38:42;5.40;99.90
18581;DHT22;9420;50.876;7.012;2022-12-07T06:41:09;5.40;99.90
18581;DHT22;9420;50.876;7.012;2022-12-07T06:43:36;5.40;99.90
18581;DHT22;9420;50.876;7.012;2022-12-07T06:46:04;5.40;99.90
18581;DHT22;9420;50.876;7.012;2022-12-07T06:48:30;5.30;99.90
18581;DHT22;9420;50.876;7.012;2022-12-07T06:50:59;5.30;99.90
18581;DHT22;9420;50.876;7.012;2022-12-07T06:53:26;5.40;99.90
18581;DHT22;9420;50.876;7.012;2022-12-07T06:55:53;5.40;99.90
18581;DHT22;9420;50.876;7.012;2022-12-07T06:58:20;5.40;99.90
18581;DHT22;9420;50.876;7.012;2022-12-07T07:00:50;5.40;99.90
18581;DHT22;9420;50.876;7.012;2022-12-07T07:03:17;5.40;99.90
18581;DHT22;9420;50.876;7.012;2022-12-07T07:05:44;5.40;99.90
18581;DHT22;9420;50.876;7.012;2022-12-07T07:08:13;5.40;99.90
18581;DHT22;9420;50.876;7.012;2022-12-07T07:10:40;5.40;99.90
18581;DHT22;9420;50.876;7.012;2022-12-07T07:13:08;5.40;99.90
18581;DHT22;9420;50.876;7.012;2022-12-07T07:15:37;5.40;99.90
18581;DHT22;9420;50.876;7.012;2022-12-07T07:18:05;5.40;99.90
18581;DHT22;9420;50.876;7.012;2022-12-07T07:20:32;5.40;99.90
18581;DHT22;9420;50.876;7.012;2022-12-07T07:22:59;5.40;99.90
18581;DHT22;9420;50.876;7.012;2022-12-07T07:25:27;5.40;99.90
18581;DHT22;9420;50.876;7.012;2022-12-07T07:27:54;5.40;99.90
18581;DHT22;9420;50.876;7.012;2022-12-07T07:30:21;5.40;99.90
18581;DHT22;9420;50.876;7.012;2022-12-07T07:32:48;5.40;99.90
18581;DHT22;9420;50.876;7.012;2022-12-07T07:35:15;5.40;99.90
18581;DHT22;9420;50.876;7.012;2022-12-07T07:37:43;5.40;99.90
18581;DHT22;9420;50.876;7.012;2022-12-07T07:40:10;5.40;99.90
18581;DHT22;9420;50.876;7.012;2022-12-07T07:42:39;5.40;99.90
18581;DHT22;9420;50.876;7.012;2022-12-07T07:45:07;5.50;99.90
18581;DHT22;9420;50.876;7.012;2022-12-07T07:47:35;5.50;99.90
18581;DHT22;9420;50.876;7.012;2022-12-07T07:50:02;5.50;99.90
18581;DHT22;9420;50.876;7.012;2022-12-07T07:52:31;5.50;99.90
18581;DHT22;9420;50.876;7.012;2022-12-07T07:54:58;5.50;99.90
18581;DHT22;9420;50.876;7.012;2022-12-07T07:57:25;5.40;99.90
18581;DHT22;9420;50.876;7.012;2022-12-07T07:59:53;5.50;99.90
18581;DHT22;9420;50.876;7.012;2022-12-07T08:02:21;5.50;99.90
18581;DHT22;9420;50.876;7.012;2022-12-07T08:04:48;5.50;99.90
18581;DHT22;9420;50.876;7.012;2022-12-07T08:07:15;5.50;99.90
18581;DHT22;9420;50.876;7.012;2022-12-07T08:09:42;5.60;99.90
18581;DHT22;9420;50.876;7.012;2022-12-07T08:12:09;5.70;99.90
18581;DHT22;9420;50.876;7.012;2022-12-07T08:14:36;5.80;99.90
18581;DHT22;9420;50.876;7.012;2022-12-07T08:17:05;5.80;99.90
18581;DHT22;9420;50.876;7.012;2022-12-07T08:19:32;5.80;99.90
18581;DHT22;9420;50.876;7.012;2022-12-07T08:22:00;5.90;99.90
18581;DHT22;9420;50.876;7.012;2022-12-07T08:24:27;5.90;99.90
18581;DHT22;9420;50.876;7.012;2022-12-07T08:26:54;5.90;99.90
18581;DHT22;9420;50.876;7.012;2022-12-07T08:29:21;5.90;99.90
18581;DHT22;9420;50.876;7.012;2022-12-07T08:31:48;5.90;99.90
18581;DHT22;9420;50.876;7.012;2022-12-07T08:34:16;5.90;99.90
18581;DHT22;9420;50.876;7.012;2022-12-07T08:36:43;6.00;99.90
18581;DHT22;9420;50.876;7.012;2022-12-07T08:39:10;5.90;99.90
18581;DHT22;9420;50.876;7.012;2022-12-07T08:41:37;6.00;99.90
18581;DHT22;9420;50.876;7.012;2022-12-07T08:44:05;6.00;99.90
18581;DHT22;9420;50.876;7.012;2022-12-07T08:46:35;5.90;99.90
18581;DHT22;9420;50.876;7.012;2022-12-07T08:49:09;6.00;99.90
18581;DHT22;9420;50.876;7.012;2022-12-07T08:51:40;6.00;99.90
18581;DHT22;9420;50.876;7.012;2022-12-07T08:54:10;6.10;99.90
18581;DHT22;9420;50.876;7.012;2022-12-07T08:56:39;6.10;99.90
18581;DHT22;9420;50.876;7.012;2022-12-07T08:59:07;6.20;99.90
18581;DHT22;9420;50.876;7.012;2022-12-07T09:01:35;6.30;99.90
18581;DHT22;9420;50.876;7.012;2022-12-07T09:04:02;6.30;99.90
18581;DHT22;9420;50.876;7.012;2022-12-07T09:06:29;6.30;99.90
18581;DHT22;9420;50.876;7.012;2022-12-07T09:08:59;6.30;99.90
18581;DHT22;9420;50.876;7.012;2022-12-07T09:11:27;6.30;99.90
18581;DHT22;9420;50.876;7.012;2022-12-07T09:13:55;6.30;99.90
18581;DHT22;9420;50.876;7.012;2022-12-07T09:16:22;6.30;99.90
18581;DHT22;9420;50.876;7.012;2022-12-07T09:18:49;6.30;99.90
18581;DHT22;9420;50.876;7.012;2022-12-07T09:21:16;6.30;99.90
18581;DHT22;9420;50.876;7.012;2022-12-07T09:23:43;6.30;99.90
18581;DHT22;9420;50.876;7.012;2022-12-07T09:26:12;6.40;99.90
18581;DHT22;9420;50.876;7.012;2022-12-07T09:28:39;6.50;99.90
18581;DHT22;9420;50.876;7.012;2022-12-07T09:31:06;6.60;99.90
18581;DHT22;9420;50.876;7.012;2022-12-07T09:33:33;6.70;99.90
18581;DHT22;9420;50.876;7.012;2022-12-07T09:36:00;6.70;99.90
18581;DHT22;9420;50.876;7.012;2022-12-07T09:38:28;6.70;99.90
18581;DHT22;9420;50.876;7.012;2022-12-07T09:40:55;6.80;99.90
18581;DHT22;9420;50.876;7.012;2022-12-07T09:43:25;6.80;99.90
18581;DHT22;9420;50.876;7.012;2022-12-07T09:45:54;6.80;99.90
18581;DHT22;9420;50.876;7.012;2022-12-07T09:48:27;6.70;99.90
18581;DHT22;9420;50.876;7.012;2022-12-07T09:50:58;6.70;99.90
18581;DHT22;9420;50.876;7.012;2022-12-07T09:53:28;6.70;99.90
18581;DHT22;9420;50.876;7.012;2022-12-07T09:55:59;6.70;99.90
18581;DHT22;9420;50.876;7.012;2022-12-07T09:58:30;6.70;99.90
18581;DHT22;9420;50.876;7.012;2022-12-07T10:01:01;6.80;99.90
18581;DHT22;9420;50.876;7.012;2022-12-07T10:03:38;6.80;99.90
18581;DHT22;9420;50.876;7.012;2022-12-07T10:06:07;6.90;99.90
18581;DHT22;9420;50.876;7.012;2022-12-07T10:08:37;6.90;99.90
18581;DHT22;9420;50.876;7.012;2022-12-07T10:11:07;6.90;99.90
18581;DHT22;9420;50.876;7.012;2022-12-07T10:13:38;7.00;99.90
18581;DHT22;9420;50.876;7.012;2022-12-07T10:16:08;7.00;99.90
18581;DHT22;9420;50.876;7.012;2022-12-07T10:19:17;6.90;99.90
18581;DHT22;9420;50.876;7.012;2022-12-07T10:22:01;6.90;99.90
18581;DHT22;9420;50.876;7.012;2022-12-07T10:24:30;7.00;99.90
18581;DHT22;9420;50.876;7.012;2022-12-07T10:26:58;7.10;99.90
18581;DHT22;9420;50.876;7.012;2022-12-07T10:29:29;7.20;99.90
18581;DHT22;9420;50.876;7.012;2022-12-07T10:31:59;7.30;99.90
18581;DHT22;9420;50.876;7.012;2022-12-07T10:34:29;7.30;99.90
18581;DHT22;9420;50.876;7.012;2022-12-07T10:37:15;7.40;99.90
18581;DHT22;9420;50.876;7.012;2022-12-07T10:39:44;7.30;99.90
18581;DHT22;9420;50.876;7.012;2022-12-07T10:42:17;7.30;99.90
18581;DHT22;9420;50.876;7.012;2022-12-07T10:44:48;7.30;99.90
18581;DHT22;9420;50.876;7.012;2022-12-07T10:47:28;7.40;99.90
18581;DHT22;9420;50.876;7.012;2022-12-07T10:50:30;7.30;99.90
18581;DHT22;9420;50.876;7.012;2022-12-07T10:53:28;7.40;99.90
18581;DHT22;9420;50.876;7.012;2022-12-07T10:56:41;7.30;99.90
18581;DHT22;9420;50.876;7.012;2022-12-07T10:59:45;7.20;99.90
18581;DHT22;9420;50.876;7.012;2022-12-07T11:02:36;7.20;99.90
18581;DHT22;9420;50.876;7.012;2022-12-07T11:05:22;7.30;99.90
18581;DHT22;9420;50.876;7.012;2022-12-07T11:07:59;7.40;99.90
18581;DHT22;9420;50.876;7.012;2022-12-07T11:10:40;7.60;99.90
18581;DHT22;9420;50.876;7.012;2022-12-07T11:13:29;7.70;99.90
18581;DHT22;9420;50.876;7.012;2022-12-07T11:16:21;7.80;99.90
18581;DHT22;9420;50.876;7.012;2022-12-07T11:19:17;7.80;99.90
18581;DHT22;9420;50.876;7.012;2022-12-07T11:21:58;7.70;99.90
18581;DHT22;9420;50.876;7.012;2022-12-07T11:24:32;7.60;99.90
18581;DHT22;9420;50.876;7.012;2022-12-07T11:27:15;7.60;99.90
18581;DHT22;9420;50.876;7.012;2022-12-07T11:30:08;7.60;99.90
18581;DHT22;9420;50.876;7.012;2022-12-07T11:32:57;7.60;99.90
18581;DHT22;9420;50.876;7.012;2022-12-07T11:35:39;7.60;99.90
18581;DHT22;9420;50.876;7.012;2022-12-07T11:38:16;7.60;99.90
18581;DHT22;9420;50.876;7.012;2022-12-07T11:40:48;7.70;99.90
18581;DHT22;9420;50.876;7.012;2022-12-07T11:43:21;7.60;99.90
18581;DHT22;9420;50.876;7.012;2022-12-07T11:45:59;7.70;99.90
18581;DHT22;9420;50.876;7.012;2022-12-07T11:48:33;7.70;99.90
18581;DHT22;9420;50.876;7.012;2022-12-07T11:51:07;7.60;99.90
18581;DHT22;9420;50.876;7.012;2022-12-07T11:53:41;7.60;99.90
18581;DHT22;9420;50.876;7.012;2022-12-07T11:56:15;7.60;99.90
18581;DHT22;9420;50.876;7.012;2022-12-07T11:58:48;7.60;99.90
18581;DHT22;9420;50.876;7.012;2022-12-07T12:01:40;7.60;99.90
18581;DHT22;9420;50.876;7.012;2022-12-07T12:04:27;7.60;99.90
18581;DHT22;9420;50.876;7.012;2022-12-07T12:07:00;7.70;99.90
18581;DHT22;9420;50.876;7.012;2022-12-07T12:09:31;7.60;99.90
18581;DHT22;9420;50.876;7.012;2022-12-07T12:15:32;7.60;99.90
18581;DHT22;9420;50.876;7.012;2022-12-07T12:18:29;7.60;99.90
18581;DHT22;9420;50.876;7.012;2022-12-07T12:21:07;7.50;99.90
18581;DHT22;9420;50.876;7.012;2022-12-07T12:23:41;7.50;99.90
18581;DHT22;9420;50.876;7.012;2022-12-07T12:26:17;7.50;99.90
18581;DHT22;9420;50.876;7.012;2022-12-07T12:28:53;7.40;99.90
18581;DHT22;9420;50.876;7.012;2022-12-07T12:31:37;7.40;99.90
18581;DHT22;9420;50.876;7.012;2022-12-07T12:34:31;7.40;99.90
18581;DHT22;9420;50.876;7.012;2022-12-07T12:40:39;7.50;99.90
18581;DHT22;9420;50.876;7.012;2022-12-07T12:43:39;7.60;99.90
18581;DHT22;9420;50.876;7.012;2022-12-07T12:46:36;7.90;99.90
18581;DHT22;9420;50.876;7.012;2022-12-07T12:49:35;8.00;99.90
18581;DHT22;9420;50.876;7.012;2022-12-07T12:58:38;7.90;99.90
18581;DHT22;9420;50.876;7.012;2022-12-07T13:01:44;7.80;99.90
18581;DHT22;9420;50.876;7.012;2022-12-07T13:04:34;7.70;99.90
18581;DHT22;9420;50.876;7.012;2022-12-07T13:10:41;7.40;99.90
18581;DHT22;9420;50.876;7.012;2022-12-07T13:13:32;7.20;99.90
18581;DHT22;9420;50.876;7.012;2022-12-07T13:22:46;7.20;99.90
18581;DHT22;9420;50.876;7.012;2022-12-07T13:25:31;7.10;99.90
18581;DHT22;9420;50.876;7.012;2022-12-07T13:28:10;7.10;99.90
18581;DHT22;9420;50.876;7.012;2022-12-07T13:30:47;7.10;99.90
18581;DHT22;9420;50.876;7.012;2022-12-07T13:33:27;7.10;99.90
18581;DHT22;9420;50.876;7.012;2022-12-07T13:35:56;7.10;99.90
18581;DHT22;9420;50.876;7.012;2022-12-07T13:38:29;7.10;99.90
18581;DHT22;9420;50.876;7.012;2022-12-07T13:41:12;7.10;99.90
18581;DHT22;9420;50.876;7.012;2022-12-07T13:43:47;7.10;99.90
18581;DHT22;9420;50.876;7.012;2022-12-07T13:46:18;7.10;99.90
18581;DHT22;9420;50.876;7.012;2022-12-07T13:48:51;7.10;99.90
18581;DHT22;9420;50.876;7.012;2022-12-07T13:51:22;7.10;99.90
18581;DHT22;9420;50.876;7.012;2022-12-07T13:53:53;7.10;99.90
18581;DHT22;9420;50.876;7.012;2022-12-07T13:56:27;7.10;99.90
18581;DHT22;9420;50.876;7.012;2022-12-07T13:58:59;7.10;99.90
18581;DHT22;9420;50.876;7.012;2022-12-07T14:01:27;7.10;99.90
18581;DHT22;9420;50.876;7.012;2022-12-07T14:04:17;7.10;99.90
18581;DHT22;9420;50.876;7.012;2022-12-07T14:07:00;7.10;99.90
18581;DHT22;9420;50.876;7.012;2022-12-07T14:09:54;7.10;99.90
18581;DHT22;9420;50.876;7.012;2022-12-07T14:12:24;7.10;99.90
18581;DHT22;9420;50.876;7.012;2022-12-07T14:14:53;7.10;99.90
18581;DHT22;9420;50.876;7.012;2022-12-07T14:17:23;7.10;99.90
18581;DHT22;9420;50.876;7.012;2022-12-07T14:19:52;7.10;99.90
18581;DHT22;9420;50.876;7.012;2022-12-07T14:22:33;7.10;99.90
18581;DHT22;9420;50.876;7.012;2022-12-07T14:25:18;7.00;99.90
18581;DHT22;9420;50.876;7.012;2022-12-07T14:27:55;7.00;99.90
18581;DHT22;9420;50.876;7.012;2022-12-07T14:30:26;7.00;99.90
18581;DHT22;9420;50.876;7.012;2022-12-07T14:32:57;7.00;99.90
18581;DHT22;9420;50.876;7.012;2022-12-07T14:35:26;7.00;99.90
18581;DHT22;9420;50.876;7.012;2022-12-07T14:37:54;7.00;99.90
18581;DHT22;9420;50.876;7.012;2022-12-07T14:40:24;6.90;99.90
18581;DHT22;9420;50.876;7.012;2022-12-07T14:42:57;7.00;99.90
18581;DHT22;9420;50.876;7.012;2022-12-07T14:45:27;6.90;99.90
18581;DHT22;9420;50.876;7.012;2022-12-07T14:47:54;6.90;99.90
18581;DHT22;9420;50.876;7.012;2022-12-07T14:50:22;6.90;99.90
18581;DHT22;9420;50.876;7.012;2022-12-07T14:52:52;6.90;99.90
18581;DHT22;9420;50.876;7.012;2022-12-07T14:55:25;6.90;99.90
18581;DHT22;9420;50.876;7.012;2022-12-07T14:57:56;6.80;99.90
18581;DHT22;9420;50.876;7.012;2022-12-07T15:00:26;6.80;99.90
18581;DHT22;9420;50.876;7.012;2022-12-07T15:02:55;6.80;99.90
18581;DHT22;9420;50.876;7.012;2022-12-07T15:05:23;6.70;99.90
18581;DHT22;9420;50.876;7.012;2022-12-07T15:07:50;6.70;99.90
18581;DHT22;9420;50.876;7.012;2022-12-07T15:10:19;6.70;99.90
18581;DHT22;9420;50.876;7.012;2022-12-07T15:12:48;6.70;99.90
18581;DHT22;9420;50.876;7.012;2022-12-07T15:15:17;6.60;99.90
18581;DHT22;9420;50.876;7.012;2022-12-07T15:17:44;6.60;99.90
18581;DHT22;9420;50.876;7.012;2022-12-07T15:20:12;6.70;99.90
18581;DHT22;9420;50.876;7.012;2022-12-07T15:22:42;6.60;99.90
18581;DHT22;9420;50.876;7.012;2022-12-07T15:25:09;6.70;99.90
18581;DHT22;9420;50.876;7.012;2022-12-07T15:27:40;6.60;99.90
18581;DHT22;9420;50.876;7.012;2022-12-07T15:30:07;6.60;99.90
18581;DHT22;9420;50.876;7.012;2022-12-07T15:32:36;6.60;99.90
18581;DHT22;9420;50.876;7.012;2022-12-07T15:35:04;6.60;99.90
18581;DHT22;9420;50.876;7.012;2022-12-07T15:37:32;6.60;99.90
18581;DHT22;9420;50.876;7.012;2022-12-07T15:39:59;6.50;99.90
18581;DHT22;9420;50.876;7.012;2022-12-07T15:42:26;6.50;99.90
18581;DHT22;9420;50.876;7.012;2022-12-07T15:44:53;6.50;99.90
18581;DHT22;9420;50.876;7.012;2022-12-07T15:47:31;6.50;99.90
18581;DHT22;9420;50.876;7.012;2022-12-07T15:50:03;6.50;99.90
18581;DHT22;9420;50.876;7.012;2022-12-07T15:52:32;6.40;99.90
18581;DHT22;9420;50.876;7.012;2022-12-07T15:55:00;6.40;99.90
18581;DHT22;9420;50.876;7.012;2022-12-07T15:57:28;6.50;99.90
18581;DHT22;9420;50.876;7.012;2022-12-07T15:59:56;6.50;99.90
18581;DHT22;9420;50.876;7.012;2022-12-07T16:02:23;6.40;99.90
18581;DHT22;9420;50.876;7.012;2022-12-07T16:04:52;6.50;99.90
18581;DHT22;9420;50.876;7.012;2022-12-07T16:07:20;6.40;99.90
18581;DHT22;9420;50.876;7.012;2022-12-07T16:09:48;6.40;99.90
18581;DHT22;9420;50.876;7.012;2022-12-07T16:12:16;6.30;99.90
18581;DHT22;9420;50.876;7.012;2022-12-07T16:14:43;6.30;99.90
18581;DHT22;9420;50.876;7.012;2022-12-07T16:17:10;6.30;99.90
18581;DHT22;9420;50.876;7.012;2022-12-07T16:19:38;6.20;99.90
18581;DHT22;9420;50.876;7.012;2022-12-07T16:22:05;6.20;99.90
18581;DHT22;9420;50.876;7.012;2022-12-07T16:24:33;6.20;99.90
18581;DHT22;9420;50.876;7.012;2022-12-07T16:27:00;6.20;99.90
18581;DHT22;9420;50.876;7.012;2022-12-07T16:29:27;6.10;99.90
18581;DHT22;9420;50.876;7.012;2022-12-07T16:31:54;6.10;99.90
18581;DHT22;9420;50.876;7.012;2022-12-07T16:34:21;6.10;99.90
18581;DHT22;9420;50.876;7.012;2022-12-07T16:36:48;6.00;99.90
18581;DHT22;9420;50.876;7.012;2022-12-07T16:39:15;6.10;99.90
18581;DHT22;9420;50.876;7.012;2022-12-07T16:41:45;6.00;99.90
18581;DHT22;9420;50.876;7.012;2022-12-07T16:44:12;6.00;99.90
18581;DHT22;9420;50.876;7.012;2022-12-07T16:46:41;6.00;99.90
18581;DHT22;9420;50.876;7.012;2022-12-07T16:49:11;5.90;99.90
18581;DHT22;9420;50.876;7.012;2022-12-07T16:51:39;5.90;99.90
18581;DHT22;9420;50.876;7.012;2022-12-07T16:54:09;5.90;99.90
18581;DHT22;9420;50.876;7.012;2022-12-07T16:56:37;5.80;99.90
18581;DHT22;9420;50.876;7.012;2022-12-07T16:59:05;5.70;99.90
18581;DHT22;9420;50.876;7.012;2022-12-07T17:01:32;5.80;99.90